createdAt,value
2019-05-07T00:02:42.824Z,88.53
2019-05-07T00:05:39.612Z,88.71
2019-05-07T00:08:35.275Z,88.88
2019-05-07T00:11:33.093Z,89.04
2019-05-07T00:14:29.658Z,89.21
2019-05-07T00:17:26.232Z,89.56
2019-05-07T00:20:23.177Z,89.73
2019-05-07T00:23:18.600Z,89.86
2019-05-07T00:26:15.542Z,90.01
2019-05-07T00:29:13.048Z,90.39
2019-05-07T00:32:09.474Z,90.73
2019-05-07T00:35:12.971Z,90.92
2019-05-07T00:38:22.660Z,91.18
2019-05-07T00:41:24.306Z,91.40
2019-05-07T00:44:21.982Z,91.48
2019-05-07T00:47:17.392Z,91.77
2019-05-07T00:50:15.688Z,92.13
2019-05-07T00:53:13.253Z,92.48
2019-05-07T00:56:09.780Z,92.95
2019-05-07T00:59:06.429Z,93.48
2019-05-07T01:02:03.249Z,93.71
2019-05-07T01:04:59.848Z,94.00
2019-05-07T01:07:57.386Z,94.04
2019-05-07T01:10:57.709Z,93.97
2019-05-07T01:13:53.422Z,94.13
2019-05-07T01:16:49.805Z,94.38
2019-05-07T01:19:53.696Z,94.32
2019-05-07T01:22:54.452Z,94.18
2019-05-07T01:25:48.794Z,94.34
2019-05-07T01:28:58.178Z,94.21
2019-05-07T01:32:00.569Z,94.11
2019-05-07T01:35:05.599Z,94.01
2019-05-07T01:38:03.109Z,93.68
2019-05-07T01:40:57.943Z,93.52
2019-05-07T01:43:55.016Z,93.53
2019-05-07T01:46:52.905Z,93.75
2019-05-07T01:49:48.541Z,94.28
2019-05-07T01:52:45.386Z,94.54
2019-05-07T01:55:42.721Z,94.79
2019-05-07T01:58:37.057Z,94.92
2019-05-07T02:01:35.616Z,95.02
2019-05-07T02:04:42.716Z,95.12
2019-05-07T02:07:52.678Z,95.07
2019-05-07T02:10:56.959Z,95.11
2019-05-07T02:13:54.625Z,95.21
2019-05-07T02:16:50.476Z,95.15
2019-05-07T02:19:48.007Z,95.16
2019-05-07T02:22:44.575Z,95.41
2019-05-07T02:25:41.968Z,95.14
2019-05-07T02:28:37.921Z,95.66
2019-05-07T02:31:34.586Z,96.10
2019-05-07T02:34:34.253Z,96.65
2019-05-07T02:37:48.315Z,97.12
2019-05-07T02:40:53.763Z,97.38
2019-05-07T02:43:50.278Z,97.18
2019-05-07T02:47:04.194Z,97.18
2019-05-07T02:50:13.077Z,97.26
2019-05-07T02:53:22.562Z,97.80
2019-05-07T02:56:27.065Z,97.84
2019-05-07T02:59:33.644Z,97.87
2019-05-07T03:02:28.519Z,97.97
2019-05-07T03:05:24.642Z,98.15
2019-05-07T03:08:26.938Z,97.85
2019-05-07T03:11:18.139Z,97.98
2019-05-07T03:14:23.653Z,98.23
2019-05-07T03:17:38.307Z,98.08
2019-05-07T03:20:39.089Z,98.19
2019-05-07T03:23:37.182Z,98.29
2019-05-07T03:26:36.083Z,98.54
2019-05-07T03:29:33.527Z,98.25
2019-05-07T03:32:47.497Z,98.39
2019-05-07T03:35:46.464Z,98.74
2019-05-07T03:38:39.131Z,98.78
2019-05-07T03:41:48.052Z,98.61
2019-05-07T03:44:54.689Z,98.18
2019-05-07T03:47:54.306Z,98.22
2019-05-07T03:50:52.833Z,98.29
2019-05-07T03:53:46.324Z,98.37
2019-05-07T03:56:43.659Z,98.15
2019-05-07T03:59:43.054Z,98.34
2019-05-07T04:02:38.113Z,98.51
2019-05-07T04:05:35.845Z,97.88
2019-05-07T04:08:33.489Z,98.13
2019-05-07T04:11:30.154Z,98.76
2019-05-07T04:14:28.047Z,99.35
2019-05-07T04:17:27.014Z,99.68
2019-05-07T04:20:20.268Z,99.00
2019-05-07T04:23:17.159Z,98.84
2019-05-07T04:26:23.251Z,98.47
2019-05-07T04:29:23.126Z,98.74
2019-05-07T04:32:18.758Z,99.30
2019-05-07T04:35:33.492Z,99.13
2019-05-07T04:38:26.702Z,100.00
2019-05-07T04:41:23.777Z,100.00
2019-05-07T04:44:23.251Z,100.00
2019-05-07T04:47:32.816Z,100.00
2019-05-07T04:50:38.276Z,100.00
2019-05-07T04:53:17.541Z,100.00
2019-05-07T04:56:14.061Z,100.00
2019-05-07T04:59:12.957Z,100.00
2019-05-07T05:02:14.928Z,100.00
2019-05-07T05:05:12.848Z,100.00
2019-05-07T05:08:13.377Z,100.00
2019-05-07T05:11:13.065Z,100.00
2019-05-07T05:14:13.675Z,100.00
2019-05-07T05:17:08.402Z,100.00
2019-05-07T05:20:04.722Z,100.00
2019-05-07T05:23:15.210Z,100.00
2019-05-07T05:26:12.612Z,100.00
2019-05-07T05:29:08.782Z,100.00
2019-05-07T05:32:06.366Z,100.00
2019-05-07T05:35:03.296Z,100.00
2019-05-07T05:37:58.288Z,100.00
2019-05-07T05:40:54.541Z,100.00
2019-05-07T05:44:02.472Z,100.00
2019-05-07T05:46:58.907Z,100.00
2019-05-07T05:49:54.801Z,100.00
2019-05-07T05:52:58.024Z,100.00
2019-05-07T05:55:54.226Z,100.00
2019-05-07T05:58:57.243Z,100.00
2019-05-07T06:02:06.745Z,100.00
2019-05-07T06:05:29.527Z,100.00
2019-05-07T06:08:32.564Z,100.00
2019-05-07T06:11:52.069Z,100.00
2019-05-07T06:14:55.783Z,100.00
2019-05-07T06:17:58.472Z,100.00
2019-05-07T06:21:07.565Z,100.00
2019-05-07T06:24:07.333Z,100.00
2019-05-07T06:27:04.137Z,100.00
2019-05-07T06:30:02.884Z,100.00
2019-05-07T06:32:58.002Z,100.00
2019-05-07T06:35:53.861Z,100.00
2019-05-07T06:38:58.729Z,100.00
2019-05-07T06:42:07.483Z,100.00
2019-05-07T06:45:18.833Z,100.00
2019-05-07T06:48:15.421Z,99.33
2019-05-07T06:51:12.589Z,98.55
2019-05-07T06:54:08.527Z,97.48
2019-05-07T06:57:04.178Z,96.59
2019-05-07T07:00:08.975Z,95.61
2019-05-07T07:03:12.735Z,93.83
2019-05-07T07:06:22.946Z,90.71
2019-05-07T07:09:36.875Z,89.60
2019-05-07T07:12:33.726Z,88.65
2019-05-07T07:15:32.084Z,87.41
2019-05-07T07:18:47.604Z,87.47
2019-05-07T07:21:47.910Z,85.92
2019-05-07T07:24:57.336Z,85.49
2019-05-07T07:27:53.310Z,84.92
2019-05-07T07:31:13.796Z,84.55
2019-05-07T07:34:13.026Z,85.80
2019-05-07T07:37:18.181Z,83.27
2019-05-07T07:40:42.203Z,81.13
2019-05-07T07:43:37.134Z,79.40
2019-05-07T07:46:34.163Z,76.81
2019-05-07T07:49:32.933Z,75.78
2019-05-07T07:52:26.405Z,74.24
2019-05-07T07:55:24.074Z,72.34
2019-05-07T07:58:34.278Z,70.36
2019-05-07T08:01:33.865Z,64.97
2019-05-07T08:04:32.166Z,67.01
2019-05-07T08:07:27.426Z,62.99
2019-05-07T08:10:23.997Z,60.26
2019-05-07T08:13:19.266Z,60.03
2019-05-07T08:16:16.969Z,58.65
2019-05-07T08:19:21.601Z,59.49
2019-05-07T08:22:12.053Z,57.10
2019-05-07T08:25:08.417Z,57.01
2019-05-07T08:28:04.111Z,52.66
2019-05-07T08:31:08.811Z,54.93
2019-05-07T08:34:09.196Z,55.79
2019-05-07T08:37:05.764Z,54.58
2019-05-07T08:40:06.571Z,54.53
2019-05-07T08:43:03.834Z,53.65
2019-05-07T08:46:07.662Z,53.78
2019-05-07T08:49:03.438Z,55.06
2019-05-07T08:52:11.986Z,53.42
2019-05-07T08:55:09.388Z,51.06
2019-05-07T08:58:06.264Z,51.06
2019-05-07T09:01:03.241Z,49.75
2019-05-07T09:03:58.783Z,50.20
2019-05-07T09:06:54.693Z,51.35
2019-05-07T09:09:52.380Z,51.67
2019-05-07T09:12:57.185Z,50.89
2019-05-07T09:15:56.248Z,52.76
2019-05-07T09:18:52.876Z,53.06
2019-05-07T09:21:49.676Z,52.13
2019-05-07T09:24:47.163Z,51.79
2019-05-07T09:27:56.674Z,51.12
2019-05-07T09:31:14.386Z,51.11
2019-05-07T09:34:11.768Z,50.87
2019-05-07T09:37:07.875Z,50.78
2019-05-07T09:40:04.117Z,51.06
2019-05-07T09:43:02.642Z,51.40
2019-05-07T09:45:59.511Z,49.74
2019-05-07T09:48:57.058Z,49.47
2019-05-07T09:51:56.431Z,47.80
2019-05-07T09:54:53.759Z,48.54
2019-05-07T09:57:52.794Z,50.65
2019-05-07T10:00:47.515Z,50.66
2019-05-07T10:03:44.776Z,47.75
2019-05-07T10:06:42.463Z,49.83
2019-05-07T10:09:39.123Z,49.77
2019-05-07T10:12:42.512Z,50.73
2019-05-07T10:15:41.824Z,47.32
2019-05-07T10:18:37.153Z,47.77
2019-05-07T10:21:35.151Z,47.50
2019-05-07T10:24:32.509Z,49.74
2019-05-07T10:27:32.474Z,45.85
2019-05-07T10:30:27.021Z,48.73
2019-05-07T10:33:24.525Z,49.40
2019-05-07T10:36:22.866Z,48.98
2019-05-07T10:39:19.058Z,48.32
2019-05-07T10:42:19.488Z,47.76
2019-05-07T10:45:22.846Z,47.49
2019-05-07T10:48:34.152Z,46.66
2019-05-07T10:51:32.140Z,48.93
2019-05-07T10:54:28.735Z,47.85
2019-05-07T10:57:26.093Z,45.17
2019-05-07T11:00:23.326Z,45.14
2019-05-07T11:03:21.953Z,48.34
2019-05-07T11:06:17.873Z,45.03
2019-05-07T11:09:15.170Z,43.65
2019-05-07T11:12:12.679Z,43.30
2019-05-07T11:15:08.139Z,47.77
2019-05-07T11:18:27.047Z,43.80
2019-05-07T11:21:24.353Z,44.56
2019-05-07T11:24:22.660Z,42.10
2019-05-07T11:27:19.981Z,44.25
2019-05-07T11:30:17.282Z,45.10
2019-05-07T11:33:13.594Z,44.28
2019-05-07T11:36:11.817Z,45.06
2019-05-07T11:39:07.508Z,43.28
2019-05-07T11:42:25.390Z,43.37
2019-05-07T11:45:26.304Z,43.44
2019-05-07T11:48:23.717Z,42.52
2019-05-07T11:51:39.552Z,40.66
2019-05-07T11:54:35.768Z,43.55
2019-05-07T11:57:34.084Z,45.20
2019-05-07T12:00:38.824Z,43.36
2019-05-07T12:03:35.045Z,42.95
2019-05-07T12:06:32.336Z,42.18
2019-05-07T12:09:29.634Z,42.06
2019-05-07T12:12:27.122Z,42.93
2019-05-07T12:15:23.335Z,42.03
2019-05-07T12:18:22.744Z,40.35
2019-05-07T12:21:21.986Z,41.81
2019-05-07T12:24:16.678Z,41.84
2019-05-07T12:27:14.542Z,43.18
2019-05-07T12:30:12.198Z,41.87
2019-05-07T12:33:19.476Z,41.36
2019-05-07T12:36:15.211Z,41.48
2019-05-07T12:39:13.673Z,40.63
2019-05-07T12:42:12.209Z,42.19
2019-05-07T12:45:09.703Z,42.48
2019-05-07T12:48:11.323Z,41.52
2019-05-07T12:51:05.478Z,40.81
2019-05-07T12:54:07.109Z,36.72
2019-05-07T12:57:03.345Z,40.38
2019-05-07T13:00:02.098Z,40.43
2019-05-07T13:03:05.037Z,40.34
2019-05-07T13:06:02.557Z,37.86
2019-05-07T13:08:59.972Z,40.28
2019-05-07T13:11:56.369Z,40.47
2019-05-07T13:14:53.847Z,41.12
2019-05-07T13:17:49.373Z,40.04
2019-05-07T13:20:48.880Z,41.86
2019-05-07T13:23:44.017Z,43.30
2019-05-07T13:26:42.747Z,39.61
2019-05-07T13:29:39.878Z,40.65
2019-05-07T13:32:36.263Z,42.00
2019-05-07T13:35:33.647Z,38.46
2019-05-07T13:38:42.532Z,39.00
2019-05-07T13:41:53.506Z,39.60
2019-05-07T13:45:12.769Z,39.22
2019-05-07T13:48:16.805Z,40.86
2019-05-07T13:51:13.995Z,38.94
2019-05-07T13:54:12.939Z,39.02
2019-05-07T13:57:08.875Z,39.08
2019-05-07T14:00:07.260Z,40.01
2019-05-07T14:03:03.835Z,39.63
2019-05-07T14:06:01.719Z,37.74
2019-05-07T14:08:58.634Z,38.04
2019-05-07T14:11:55.846Z,38.02
2019-05-07T14:14:53.435Z,38.72
2019-05-07T14:17:49.862Z,38.70
2019-05-07T14:20:47.170Z,39.39
2019-05-07T14:23:47.922Z,39.84
2019-05-07T14:26:45.481Z,40.40
2019-05-07T14:29:43.911Z,40.99
2019-05-07T14:33:06.127Z,39.62
2019-05-07T14:36:12.113Z,38.56
2019-05-07T14:39:08.349Z,38.59
2019-05-07T14:42:05.516Z,37.97
2019-05-07T14:45:01.792Z,37.60
2019-05-07T14:47:58.893Z,39.13
2019-05-07T14:50:56.628Z,40.17
2019-05-07T14:53:54.368Z,37.81
2019-05-07T14:56:53.833Z,36.46
2019-05-07T14:59:52.376Z,36.75
2019-05-07T15:02:48.834Z,37.29
2019-05-07T15:05:45.396Z,34.61
2019-05-07T15:08:42.982Z,34.30
2019-05-07T15:11:42.337Z,32.24
2019-05-07T15:14:35.965Z,32.53
2019-05-07T15:17:41.948Z,34.73
2019-05-07T15:20:38.671Z,34.26
2019-05-07T15:23:42.580Z,35.11
2019-05-07T15:26:39.290Z,35.01
2019-05-07T15:29:36.917Z,34.91
2019-05-07T15:32:36.247Z,34.13
2019-05-07T15:35:32.474Z,33.06
2019-05-07T15:38:29.828Z,33.45
2019-05-07T15:41:26.318Z,33.04
2019-05-07T15:44:24.458Z,34.02
2019-05-07T15:47:25.435Z,34.37
2019-05-07T15:50:23.156Z,35.03
2019-05-07T15:53:37.961Z,32.92
2019-05-07T15:56:34.302Z,32.69
2019-05-07T15:59:34.889Z,34.22
2019-05-07T16:02:41.539Z,32.98
2019-05-07T16:05:37.803Z,32.60
2019-05-07T16:08:35.283Z,33.16
2019-05-07T16:11:32.700Z,34.05
2019-05-07T16:14:35.162Z,35.09
2019-05-07T16:17:42.869Z,34.78
2019-05-07T16:20:39.778Z,34.51
2019-05-07T16:23:36.882Z,36.14
2019-05-07T16:26:33.234Z,35.38
2019-05-07T16:29:33.697Z,33.89
2019-05-07T16:32:27.582Z,36.25
2019-05-07T16:35:24.851Z,37.30
2019-05-07T16:38:23.374Z,37.55
2019-05-07T16:41:22.372Z,37.87
2019-05-07T16:44:19.350Z,38.49
2019-05-07T16:47:15.469Z,39.51
2019-05-07T16:50:13.247Z,39.13
2019-05-07T16:53:08.969Z,38.92
2019-05-07T16:56:07.324Z,39.22
2019-05-07T16:59:07.903Z,39.72
2019-05-07T17:02:06.277Z,39.67
2019-05-07T17:05:22.922Z,39.09
2019-05-07T17:08:29.055Z,40.16
2019-05-07T17:11:27.757Z,39.76
2019-05-07T17:14:24.242Z,39.94
2019-05-07T17:17:22.395Z,40.75
2019-05-07T17:20:19.124Z,41.23
2019-05-07T17:23:15.647Z,41.31
2019-05-07T17:26:13.269Z,41.58
2019-05-07T17:29:09.576Z,40.85
2019-05-07T17:32:07.989Z,41.14
2019-05-07T17:35:06.753Z,41.16
2019-05-07T17:38:08.991Z,40.96
2019-05-07T17:41:10.798Z,41.54
2019-05-07T17:43:59.249Z,41.43
2019-05-07T17:47:01.841Z,42.07
2019-05-07T17:49:57.097Z,42.65
2019-05-07T17:52:54.747Z,42.61
2019-05-07T17:55:53.435Z,43.26
2019-05-07T17:58:52.078Z,43.31
2019-05-07T18:02:04.340Z,44.20
2019-05-07T18:05:02.833Z,44.75
2019-05-07T18:08:02.181Z,45.39
2019-05-07T18:11:02.031Z,45.45
2019-05-07T18:13:57.140Z,46.31
2019-05-07T18:17:22.010Z,46.52
2019-05-07T18:20:18.929Z,46.83
2019-05-07T18:23:17.091Z,46.80
2019-05-07T18:26:26.433Z,46.77
2019-05-07T18:29:08.868Z,47.22
2019-05-07T18:32:07.791Z,47.89
2019-05-07T18:35:05.321Z,48.04
2019-05-07T18:38:03.777Z,48.25
2019-05-07T18:41:02.366Z,48.41
2019-05-07T18:44:12.087Z,48.62
2019-05-07T18:46:56.296Z,48.77
2019-05-07T18:49:52.520Z,48.89
2019-05-07T18:52:52.081Z,49.60
2019-05-07T18:55:46.336Z,50.29
2019-05-07T18:58:42.839Z,50.18
2019-05-07T19:01:39.376Z,51.09
2019-05-07T19:04:42.253Z,52.23
2019-05-07T19:07:38.947Z,53.74
2019-05-07T19:10:37.134Z,54.03
2019-05-07T19:13:35.635Z,54.86
2019-05-07T19:16:36.469Z,56.11
2019-05-07T19:19:33.651Z,56.02
2019-05-07T19:22:29.849Z,55.79
2019-05-07T19:25:28.370Z,55.48
2019-05-07T19:28:23.917Z,55.37
2019-05-07T19:31:22.015Z,55.98
2019-05-07T19:34:21.830Z,56.96
2019-05-07T19:37:17.250Z,57.15
2019-05-07T19:40:15.805Z,57.18
2019-05-07T19:43:11.995Z,57.28
2019-05-07T19:46:08.825Z,57.41
2019-05-07T19:49:07.122Z,57.44
2019-05-07T19:52:02.893Z,57.53
2019-05-07T19:55:04.709Z,57.67
2019-05-07T19:58:04.161Z,58.08
2019-05-07T20:01:01.442Z,57.80
2019-05-07T20:03:58.776Z,57.63
2019-05-07T20:06:56.230Z,58.67
2019-05-07T20:09:52.552Z,58.47
2019-05-07T20:12:53.165Z,58.75
2019-05-07T20:15:49.355Z,58.56
2019-05-07T20:18:46.497Z,59.08
2019-05-07T20:21:42.659Z,59.87
2019-05-07T20:24:46.832Z,59.62
2019-05-07T20:27:41.336Z,59.58
2019-05-07T20:30:41.792Z,59.94
2019-05-07T20:33:36.400Z,60.27
2019-05-07T20:36:33.791Z,60.41
2019-05-07T20:39:33.070Z,60.43
2019-05-07T20:42:29.072Z,60.90
2019-05-07T20:45:28.167Z,61.19
2019-05-07T20:48:24.896Z,61.71
2019-05-07T20:51:23.144Z,61.58
2019-05-07T20:54:33.471Z,62.42
2019-05-07T20:57:42.836Z,62.66
2019-05-07T21:00:39.335Z,63.23
2019-05-07T21:03:35.389Z,64.02
2019-05-07T21:06:33.840Z,64.00
2019-05-07T21:09:32.804Z,64.71
2019-05-07T21:12:28.536Z,64.86
2019-05-07T21:15:26.865Z,64.72
2019-05-07T21:18:23.523Z,65.17
2019-05-07T21:21:21.852Z,65.52
2019-05-07T21:24:16.283Z,65.77
2019-05-07T21:27:13.130Z,65.76
2019-05-07T21:30:10.443Z,66.44
2019-05-07T21:33:06.696Z,66.57
2019-05-07T21:36:03.852Z,66.56
2019-05-07T21:39:02.064Z,66.35
2019-05-07T21:41:58.227Z,67.06
2019-05-07T21:44:54.967Z,66.88
2019-05-07T21:47:52.070Z,67.17
2019-05-07T21:50:46.765Z,67.43
2019-05-07T21:53:45.832Z,67.28
2019-05-07T21:56:58.464Z,67.92
2019-05-07T21:59:55.001Z,67.71
2019-05-07T22:02:52.439Z,68.03
2019-05-07T22:05:47.821Z,68.27
2019-05-07T22:08:43.488Z,68.55
2019-05-07T22:11:42.600Z,69.36
2019-05-07T22:14:36.737Z,68.99
2019-05-07T22:17:34.212Z,68.64
2019-05-07T22:20:31.455Z,69.09
2019-05-07T22:23:32.257Z,69.93
2019-05-07T22:26:32.371Z,70.71
2019-05-07T22:29:29.121Z,71.52
2019-05-07T22:32:52.798Z,71.87
2019-05-07T22:35:52.281Z,72.55
2019-05-07T22:38:47.314Z,72.88
2019-05-07T22:41:43.914Z,73.98
2019-05-07T22:44:48.633Z,74.27
2019-05-07T22:47:44.045Z,75.41
2019-05-07T22:50:42.118Z,74.69
2019-05-07T22:53:39.140Z,74.13
2019-05-07T22:56:38.746Z,74.01
2019-05-07T22:59:34.834Z,74.37
2019-05-07T23:02:32.151Z,73.55
2019-05-07T23:05:35.924Z,73.02
2019-05-07T23:08:33.511Z,73.73
2019-05-07T23:11:34.448Z,74.40
2019-05-07T23:14:29.984Z,74.33
2019-05-07T23:17:27.724Z,73.78
2019-05-07T23:20:24.446Z,72.90
2019-05-07T23:23:33.598Z,71.46
2019-05-07T23:26:48.146Z,71.57
2019-05-07T23:29:34.676Z,72.07
2019-05-07T23:32:37.650Z,73.32
2019-05-07T23:35:33.451Z,73.46
2019-05-07T23:38:31.913Z,74.14
2019-05-07T23:41:42.650Z,74.13
2019-05-07T23:44:42.018Z,73.79
2019-05-07T23:47:37.640Z,73.59
2019-05-07T23:50:36.167Z,73.94
2019-05-07T23:53:31.696Z,74.94
2019-05-07T23:56:29.568Z,75.04
2019-05-07T23:59:25.204Z,75.60
